sensor_id;sensor_type;location;lat;lon;timestamp;P1;durP1;ratioP1;P2;durP2;ratioP2
49320;SDS011;35817;44.498;0.166;2022-11-15T00:02:11;4.13;;;3.20;;
49320;SDS011;35817;44.498;0.166;2022-11-15T00:04:37;5.28;;;2.67;;
49320;SDS011;35817;44.498;0.166;2022-11-15T00:07:03;5.28;;;1.65;;
49320;SDS011;35817;44.498;0.166;2022-11-15T00:09:28;6.15;;;2.40;;
49320;SDS011;35817;44.498;0.166;2022-11-15T00:11:54;4.82;;;2.08;;
49320;SDS011;35817;44.498;0.166;2022-11-15T00:14:20;4.68;;;2.50;;
49320;SDS011;35817;44.498;0.166;2022-11-15T00:16:45;5.25;;;3.20;;
49320;SDS011;35817;44.498;0.166;2022-11-15T00:19:11;4.15;;;2.00;;
49320;SDS011;35817;44.498;0.166;2022-11-15T00:21:37;4.78;;;2.17;;
49320;SDS011;35817;44.498;0.166;2022-11-15T00:24:02;4.03;;;2.08;;
49320;SDS011;35817;44.498;0.166;2022-11-15T00:26:28;5.25;;;2.38;;
49320;SDS011;35817;44.498;0.166;2022-11-15T00:28:54;4.50;;;2.42;;
49320;SDS011;35817;44.498;0.166;2022-11-15T00:31:19;4.80;;;2.10;;
49320;SDS011;35817;44.498;0.166;2022-11-15T00:33:45;3.78;;;1.95;;
49320;SDS011;35817;44.498;0.166;2022-11-15T00:36:11;4.75;;;2.35;;
49320;SDS011;35817;44.498;0.166;2022-11-15T00:38:38;4.00;;;2.33;;
49320;SDS011;35817;44.498;0.166;2022-11-15T00:41:05;3.35;;;2.35;;
49320;SDS011;35817;44.498;0.166;2022-11-15T00:43:32;3.92;;;2.55;;
49320;SDS011;35817;44.498;0.166;2022-11-15T00:45:59;3.45;;;2.08;;
49320;SDS011;35817;44.498;0.166;2022-11-15T00:48:25;4.20;;;2.25;;
49320;SDS011;35817;44.498;0.166;2022-11-15T00:50:50;4.65;;;2.78;;
49320;SDS011;35817;44.498;0.166;2022-11-15T00:53:16;8.15;;;3.00;;
49320;SDS011;35817;44.498;0.166;2022-11-15T00:55:42;4.78;;;2.25;;
49320;SDS011;35817;44.498;0.166;2022-11-15T00:58:08;9.50;;;2.42;;
49320;SDS011;35817;44.498;0.166;2022-11-15T01:00:34;3.83;;;2.22;;
49320;SDS011;35817;44.498;0.166;2022-11-15T01:03:00;4.95;;;1.90;;
49320;SDS011;35817;44.498;0.166;2022-11-15T01:05:27;6.95;;;1.98;;
49320;SDS011;35817;44.498;0.166;2022-11-15T01:07:56;6.88;;;2.70;;
49320;SDS011;35817;44.498;0.166;2022-11-15T01:10:22;3.25;;;1.20;;
49320;SDS011;35817;44.498;0.166;2022-11-15T01:12:49;2.92;;;1.70;;
49320;SDS011;35817;44.498;0.166;2022-11-15T01:15:15;4.88;;;1.67;;
49320;SDS011;35817;44.498;0.166;2022-11-15T01:17:41;2.45;;;1.23;;
49320;SDS011;35817;44.498;0.166;2022-11-15T01:20:07;4.10;;;2.10;;
49320;SDS011;35817;44.498;0.166;2022-11-15T01:22:33;3.78;;;1.70;;
49320;SDS011;35817;44.498;0.166;2022-11-15T01:24:59;5.82;;;2.35;;
49320;SDS011;35817;44.498;0.166;2022-11-15T01:27:24;3.33;;;1.13;;
49320;SDS011;35817;44.498;0.166;2022-11-15T01:29:50;3.92;;;2.53;;
49320;SDS011;35817;44.498;0.166;2022-11-15T01:32:16;9.02;;;2.17;;
49320;SDS011;35817;44.498;0.166;2022-11-15T01:34:41;6.35;;;1.77;;
49320;SDS011;35817;44.498;0.166;2022-11-15T01:37:07;4.38;;;2.40;;
49320;SDS011;35817;44.498;0.166;2022-11-15T01:39:33;8.88;;;2.25;;
49320;SDS011;35817;44.498;0.166;2022-11-15T01:42:01;5.60;;;3.15;;
49320;SDS011;35817;44.498;0.166;2022-11-15T01:44:34;3.53;;;1.65;;
49320;SDS011;35817;44.498;0.166;2022-11-15T01:47:07;8.18;;;3.05;;
49320;SDS011;35817;44.498;0.166;2022-11-15T01:49:37;9.07;;;3.30;;
49320;SDS011;35817;44.498;0.166;2022-11-15T01:52:09;5.78;;;2.78;;
49320;SDS011;35817;44.498;0.166;2022-11-15T01:54:38;4.57;;;2.47;;
49320;SDS011;35817;44.498;0.166;2022-11-15T01:57:06;4.30;;;2.05;;
49320;SDS011;35817;44.498;0.166;2022-11-15T01:59:34;5.53;;;1.60;;
49320;SDS011;35817;44.498;0.166;2022-11-15T02:02:02;2.65;;;1.65;;
49320;SDS011;35817;44.498;0.166;2022-11-15T02:04:29;6.55;;;1.92;;
49320;SDS011;35817;44.498;0.166;2022-11-15T02:06:57;3.80;;;1.88;;
49320;SDS011;35817;44.498;0.166;2022-11-15T02:09:24;3.53;;;2.03;;
49320;SDS011;35817;44.498;0.166;2022-11-15T02:11:50;7.75;;;2.63;;
49320;SDS011;35817;44.498;0.166;2022-11-15T02:14:17;2.58;;;1.92;;
49320;SDS011;35817;44.498;0.166;2022-11-15T02:25:02;3.45;;;2.22;;
49320;SDS011;35817;44.498;0.166;2022-11-15T02:35:29;4.07;;;2.00;;
49320;SDS011;35817;44.498;0.166;2022-11-15T02:40:45;6.68;;;2.55;;
49320;SDS011;35817;44.498;0.166;2022-11-15T02:43:22;5.25;;;2.47;;
49320;SDS011;35817;44.498;0.166;2022-11-15T02:46:34;7.00;;;2.83;;
49320;SDS011;35817;44.498;0.166;2022-11-15T02:49:19;6.78;;;2.70;;
49320;SDS011;35817;44.498;0.166;2022-11-15T02:51:47;4.43;;;2.78;;
49320;SDS011;35817;44.498;0.166;2022-11-15T02:54:15;6.07;;;1.95;;
49320;SDS011;35817;44.498;0.166;2022-11-15T02:56:49;7.82;;;2.55;;
49320;SDS011;35817;44.498;0.166;2022-11-15T03:05:01;4.28;;;2.67;;
49320;SDS011;35817;44.498;0.166;2022-11-15T03:07:50;4.95;;;3.08;;
49320;SDS011;35817;44.498;0.166;2022-11-15T03:12:59;5.25;;;2.80;;
49320;SDS011;35817;44.498;0.166;2022-11-15T03:15:38;7.82;;;2.95;;
49320;SDS011;35817;44.498;0.166;2022-11-15T03:20:47;5.20;;;3.10;;
49320;SDS011;35817;44.498;0.166;2022-11-15T03:23:14;9.35;;;3.08;;
49320;SDS011;35817;44.498;0.166;2022-11-15T03:25:41;4.40;;;2.17;;
49320;SDS011;35817;44.498;0.166;2022-11-15T03:28:12;4.15;;;3.03;;
49320;SDS011;35817;44.498;0.166;2022-11-15T03:30:41;11.18;;;2.83;;
49320;SDS011;35817;44.498;0.166;2022-11-15T03:33:09;3.45;;;2.00;;
49320;SDS011;35817;44.498;0.166;2022-11-15T03:35:40;4.63;;;1.98;;
49320;SDS011;35817;44.498;0.166;2022-11-15T03:38:22;3.20;;;2.33;;
49320;SDS011;35817;44.498;0.166;2022-11-15T03:40:56;2.63;;;1.83;;
49320;SDS011;35817;44.498;0.166;2022-11-15T03:46:14;3.42;;;1.85;;
49320;SDS011;35817;44.498;0.166;2022-11-15T03:48:56;3.55;;;1.63;;
49320;SDS011;35817;44.498;0.166;2022-11-15T03:51:31;3.97;;;2.30;;
49320;SDS011;35817;44.498;0.166;2022-11-15T03:53:57;3.03;;;1.52;;
49320;SDS011;35817;44.498;0.166;2022-11-15T03:56:23;3.67;;;1.63;;
49320;SDS011;35817;44.498;0.166;2022-11-15T03:58:48;5.07;;;2.90;;
49320;SDS011;35817;44.498;0.166;2022-11-15T04:01:14;3.08;;;1.67;;
49320;SDS011;35817;44.498;0.166;2022-11-15T04:03:40;2.47;;;1.95;;
49320;SDS011;35817;44.498;0.166;2022-11-15T04:06:05;5.03;;;2.20;;
49320;SDS011;35817;44.498;0.166;2022-11-15T04:08:31;3.97;;;2.42;;
49320;SDS011;35817;44.498;0.166;2022-11-15T04:10:57;7.90;;;2.58;;
49320;SDS011;35817;44.498;0.166;2022-11-15T04:13:22;6.10;;;2.35;;
49320;SDS011;35817;44.498;0.166;2022-11-15T04:15:48;3.13;;;1.98;;
49320;SDS011;35817;44.498;0.166;2022-11-15T04:18:14;2.88;;;1.80;;
49320;SDS011;35817;44.498;0.166;2022-11-15T04:20:39;3.78;;;1.55;;
49320;SDS011;35817;44.498;0.166;2022-11-15T04:23:24;4.57;;;2.33;;
49320;SDS011;35817;44.498;0.166;2022-11-15T04:26:09;3.50;;;2.17;;
49320;SDS011;35817;44.498;0.166;2022-11-15T04:28:37;4.28;;;2.47;;
49320;SDS011;35817;44.498;0.166;2022-11-15T04:31:23;3.97;;;2.17;;
49320;SDS011;35817;44.498;0.166;2022-11-15T04:33:49;4.38;;;2.92;;
49320;SDS011;35817;44.498;0.166;2022-11-15T04:36:15;3.55;;;2.58;;
49320;SDS011;35817;44.498;0.166;2022-11-15T04:38:59;4.72;;;1.95;;
49320;SDS011;35817;44.498;0.166;2022-11-15T04:41:25;3.85;;;2.42;;
49320;SDS011;35817;44.498;0.166;2022-11-15T04:43:50;4.20;;;2.47;;
49320;SDS011;35817;44.498;0.166;2022-11-15T04:46:16;4.03;;;2.30;;
49320;SDS011;35817;44.498;0.166;2022-11-15T04:48:42;4.32;;;3.22;;
49320;SDS011;35817;44.498;0.166;2022-11-15T04:51:08;4.28;;;2.83;;
49320;SDS011;35817;44.498;0.166;2022-11-15T04:53:33;3.22;;;2.47;;
49320;SDS011;35817;44.498;0.166;2022-11-15T04:55:59;5.43;;;3.35;;
49320;SDS011;35817;44.498;0.166;2022-11-15T04:58:25;3.53;;;2.30;;
49320;SDS011;35817;44.498;0.166;2022-11-15T05:00:50;9.05;;;4.32;;
49320;SDS011;35817;44.498;0.166;2022-11-15T05:03:16;5.20;;;3.88;;
49320;SDS011;35817;44.498;0.166;2022-11-15T05:06:00;6.40;;;3.65;;
49320;SDS011;35817;44.498;0.166;2022-11-15T05:08:26;6.03;;;3.78;;
49320;SDS011;35817;44.498;0.166;2022-11-15T05:10:52;5.55;;;3.50;;
49320;SDS011;35817;44.498;0.166;2022-11-15T05:13:17;3.67;;;2.53;;
49320;SDS011;35817;44.498;0.166;2022-11-15T05:15:43;21.33;;;4.78;;
49320;SDS011;35817;44.498;0.166;2022-11-15T05:18:09;4.90;;;3.15;;
49320;SDS011;35817;44.498;0.166;2022-11-15T05:20:35;4.63;;;3.95;;
49320;SDS011;35817;44.498;0.166;2022-11-15T05:23:01;9.00;;;3.88;;
49320;SDS011;35817;44.498;0.166;2022-11-15T05:25:26;5.50;;;3.75;;
49320;SDS011;35817;44.498;0.166;2022-11-15T05:27:52;5.07;;;4.28;;
49320;SDS011;35817;44.498;0.166;2022-11-15T05:30:18;7.68;;;5.03;;
49320;SDS011;35817;44.498;0.166;2022-11-15T05:32:44;6.95;;;5.40;;
49320;SDS011;35817;44.498;0.166;2022-11-15T05:35:12;5.85;;;3.65;;
49320;SDS011;35817;44.498;0.166;2022-11-15T05:37:45;6.95;;;3.95;;
49320;SDS011;35817;44.498;0.166;2022-11-15T05:40:11;7.45;;;5.22;;
49320;SDS011;35817;44.498;0.166;2022-11-15T05:42:36;6.82;;;3.92;;
49320;SDS011;35817;44.498;0.166;2022-11-15T05:45:03;7.82;;;5.18;;
49320;SDS011;35817;44.498;0.166;2022-11-15T05:47:33;10.38;;;5.03;;
49320;SDS011;35817;44.498;0.166;2022-11-15T05:50:00;9.77;;;5.78;;
49320;SDS011;35817;44.498;0.166;2022-11-15T05:52:28;7.25;;;5.25;;
49320;SDS011;35817;44.498;0.166;2022-11-15T05:54:56;10.63;;;4.82;;
49320;SDS011;35817;44.498;0.166;2022-11-15T05:57:23;7.93;;;5.38;;
49320;SDS011;35817;44.498;0.166;2022-11-15T05:59:49;7.30;;;5.22;;
49320;SDS011;35817;44.498;0.166;2022-11-15T06:02:15;7.07;;;4.75;;
49320;SDS011;35817;44.498;0.166;2022-11-15T06:04:41;10.18;;;4.65;;
49320;SDS011;35817;44.498;0.166;2022-11-15T06:07:07;7.75;;;6.30;;
49320;SDS011;35817;44.498;0.166;2022-11-15T06:09:32;8.23;;;5.82;;
49320;SDS011;35817;44.498;0.166;2022-11-15T06:11:58;12.00;;;6.95;;
49320;SDS011;35817;44.498;0.166;2022-11-15T06:14:24;11.27;;;5.25;;
49320;SDS011;35817;44.498;0.166;2022-11-15T06:16:49;10.00;;;6.97;;
49320;SDS011;35817;44.498;0.166;2022-11-15T06:19:15;15.57;;;7.93;;
49320;SDS011;35817;44.498;0.166;2022-11-15T06:21:40;8.05;;;6.35;;
49320;SDS011;35817;44.498;0.166;2022-11-15T06:24:06;10.77;;;7.30;;
49320;SDS011;35817;44.498;0.166;2022-11-15T06:26:32;11.13;;;7.22;;
49320;SDS011;35817;44.498;0.166;2022-11-15T06:28:58;8.30;;;6.72;;
49320;SDS011;35817;44.498;0.166;2022-11-15T06:31:23;6.30;;;5.53;;
49320;SDS011;35817;44.498;0.166;2022-11-15T06:33:49;8.77;;;6.68;;
49320;SDS011;35817;44.498;0.166;2022-11-15T06:36:15;13.13;;;6.88;;
49320;SDS011;35817;44.498;0.166;2022-11-15T06:38:42;13.77;;;7.53;;
49320;SDS011;35817;44.498;0.166;2022-11-15T06:41:10;7.07;;;6.00;;
49320;SDS011;35817;44.498;0.166;2022-11-15T06:43:37;12.38;;;7.05;;
49320;SDS011;35817;44.498;0.166;2022-11-15T06:46:04;9.85;;;6.25;;
49320;SDS011;35817;44.498;0.166;2022-11-15T06:48:30;12.93;;;8.95;;
49320;SDS011;35817;44.498;0.166;2022-11-15T06:50:58;11.52;;;9.35;;
49320;SDS011;35817;44.498;0.166;2022-11-15T06:53:25;15.45;;;10.48;;
49320;SDS011;35817;44.498;0.166;2022-11-15T06:55:52;11.20;;;8.43;;
49320;SDS011;35817;44.498;0.166;2022-11-15T06:58:18;12.57;;;9.27;;
49320;SDS011;35817;44.498;0.166;2022-11-15T07:00:43;11.13;;;8.18;;
49320;SDS011;35817;44.498;0.166;2022-11-15T07:03:09;10.15;;;7.13;;
49320;SDS011;35817;44.498;0.166;2022-11-15T07:05:35;12.52;;;8.88;;
49320;SDS011;35817;44.498;0.166;2022-11-15T07:08:01;14.88;;;8.77;;
49320;SDS011;35817;44.498;0.166;2022-11-15T07:10:27;14.90;;;11.13;;
49320;SDS011;35817;44.498;0.166;2022-11-15T07:12:54;11.57;;;8.30;;
49320;SDS011;35817;44.498;0.166;2022-11-15T07:15:20;12.18;;;8.52;;
49320;SDS011;35817;44.498;0.166;2022-11-15T07:17:48;15.52;;;9.43;;
49320;SDS011;35817;44.498;0.166;2022-11-15T07:20:14;13.10;;;8.38;;
49320;SDS011;35817;44.498;0.166;2022-11-15T07:22:40;16.17;;;7.75;;
49320;SDS011;35817;44.498;0.166;2022-11-15T07:25:10;11.27;;;9.15;;
49320;SDS011;35817;44.498;0.166;2022-11-15T07:27:36;13.07;;;10.30;;
49320;SDS011;35817;44.498;0.166;2022-11-15T07:30:02;18.52;;;9.35;;
49320;SDS011;35817;44.498;0.166;2022-11-15T07:32:28;13.60;;;9.52;;
49320;SDS011;35817;44.498;0.166;2022-11-15T07:34:53;15.65;;;10.75;;
49320;SDS011;35817;44.498;0.166;2022-11-15T07:37:19;17.20;;;11.95;;
49320;SDS011;35817;44.498;0.166;2022-11-15T07:39:45;16.38;;;10.80;;
49320;SDS011;35817;44.498;0.166;2022-11-15T07:42:11;13.98;;;7.80;;
49320;SDS011;35817;44.498;0.166;2022-11-15T07:44:55;12.05;;;9.38;;
49320;SDS011;35817;44.498;0.166;2022-11-15T07:47:21;12.20;;;7.93;;
49320;SDS011;35817;44.498;0.166;2022-11-15T07:49:47;15.98;;;10.23;;
49320;SDS011;35817;44.498;0.166;2022-11-15T07:52:12;15.90;;;10.02;;
49320;SDS011;35817;44.498;0.166;2022-11-15T07:54:38;16.77;;;10.27;;
49320;SDS011;35817;44.498;0.166;2022-11-15T07:57:04;15.60;;;11.00;;
49320;SDS011;35817;44.498;0.166;2022-11-15T07:59:32;12.07;;;8.43;;
49320;SDS011;35817;44.498;0.166;2022-11-15T08:02:03;13.00;;;9.23;;
49320;SDS011;35817;44.498;0.166;2022-11-15T08:04:29;12.38;;;9.38;;
49320;SDS011;35817;44.498;0.166;2022-11-15T08:06:54;15.30;;;11.73;;
49320;SDS011;35817;44.498;0.166;2022-11-15T08:09:20;16.10;;;10.70;;
49320;SDS011;35817;44.498;0.166;2022-11-15T08:11:46;14.07;;;9.52;;
49320;SDS011;35817;44.498;0.166;2022-11-15T08:14:11;12.48;;;10.07;;
49320;SDS011;35817;44.498;0.166;2022-11-15T08:16:37;15.38;;;9.30;;
49320;SDS011;35817;44.498;0.166;2022-11-15T08:19:03;12.25;;;8.02;;
49320;SDS011;35817;44.498;0.166;2022-11-15T08:21:29;14.55;;;9.32;;
49320;SDS011;35817;44.498;0.166;2022-11-15T08:24:03;18.25;;;9.95;;
49320;SDS011;35817;44.498;0.166;2022-11-15T08:26:31;10.70;;;8.18;;
49320;SDS011;35817;44.498;0.166;2022-11-15T08:28:57;11.57;;;7.60;;
49320;SDS011;35817;44.498;0.166;2022-11-15T08:31:22;12.02;;;9.15;;
49320;SDS011;35817;44.498;0.166;2022-11-15T08:33:48;10.23;;;7.40;;
49320;SDS011;35817;44.498;0.166;2022-11-15T08:36:15;12.57;;;8.63;;
49320;SDS011;35817;44.498;0.166;2022-11-15T08:38:42;9.70;;;6.75;;
49320;SDS011;35817;44.498;0.166;2022-11-15T08:41:10;14.60;;;8.38;;
49320;SDS011;35817;44.498;0.166;2022-11-15T08:43:51;11.63;;;8.40;;
49320;SDS011;35817;44.498;0.166;2022-11-15T08:46:16;10.48;;;7.18;;
49320;SDS011;35817;44.498;0.166;2022-11-15T08:48:43;12.00;;;6.50;;
49320;SDS011;35817;44.498;0.166;2022-11-15T08:51:09;9.95;;;7.80;;
49320;SDS011;35817;44.498;0.166;2022-11-15T08:53:34;12.02;;;7.00;;
49320;SDS011;35817;44.498;0.166;2022-11-15T08:56:00;9.98;;;6.35;;
49320;SDS011;35817;44.498;0.166;2022-11-15T08:58:26;16.55;;;8.00;;
49320;SDS011;35817;44.498;0.166;2022-11-15T09:00:52;11.05;;;5.50;;
49320;SDS011;35817;44.498;0.166;2022-11-15T09:03:18;12.15;;;7.43;;
49320;SDS011;35817;44.498;0.166;2022-11-15T09:05:43;10.77;;;6.82;;
49320;SDS011;35817;44.498;0.166;2022-11-15T09:08:09;7.85;;;5.05;;
49320;SDS011;35817;44.498;0.166;2022-11-15T09:10:36;7.45;;;5.03;;
49320;SDS011;35817;44.498;0.166;2022-11-15T09:13:01;6.97;;;5.68;;
49320;SDS011;35817;44.498;0.166;2022-11-15T09:15:27;7.65;;;5.90;;
49320;SDS011;35817;44.498;0.166;2022-11-15T09:17:53;8.52;;;5.70;;
49320;SDS011;35817;44.498;0.166;2022-11-15T09:20:18;9.80;;;6.50;;
49320;SDS011;35817;44.498;0.166;2022-11-15T09:22:44;7.05;;;5.43;;
49320;SDS011;35817;44.498;0.166;2022-11-15T09:25:10;9.70;;;4.60;;
49320;SDS011;35817;44.498;0.166;2022-11-15T09:27:35;8.90;;;5.28;;
49320;SDS011;35817;44.498;0.166;2022-11-15T09:30:01;7.03;;;5.38;;
49320;SDS011;35817;44.498;0.166;2022-11-15T09:32:28;6.63;;;4.55;;
49320;SDS011;35817;44.498;0.166;2022-11-15T09:34:55;8.77;;;5.30;;
49320;SDS011;35817;44.498;0.166;2022-11-15T09:37:31;7.82;;;5.28;;
49320;SDS011;35817;44.498;0.166;2022-11-15T09:39:57;10.00;;;4.78;;
49320;SDS011;35817;44.498;0.166;2022-11-15T09:45:22;7.72;;;5.68;;
49320;SDS011;35817;44.498;0.166;2022-11-15T09:48:15;8.23;;;4.30;;
49320;SDS011;35817;44.498;0.166;2022-11-15T09:50:49;9.52;;;5.63;;
49320;SDS011;35817;44.498;0.166;2022-11-15T09:53:24;5.97;;;4.20;;
49320;SDS011;35817;44.498;0.166;2022-11-15T09:56:05;8.57;;;4.90;;
49320;SDS011;35817;44.498;0.166;2022-11-15T09:58:42;6.03;;;4.53;;
49320;SDS011;35817;44.498;0.166;2022-11-15T10:04:13;9.48;;;5.40;;
49320;SDS011;35817;44.498;0.166;2022-11-15T10:06:46;6.07;;;5.00;;
49320;SDS011;35817;44.498;0.166;2022-11-15T10:09:24;7.85;;;5.07;;
49320;SDS011;35817;44.498;0.166;2022-11-15T10:11:54;6.10;;;4.30;;
49320;SDS011;35817;44.498;0.166;2022-11-15T10:14:22;5.00;;;3.97;;
49320;SDS011;35817;44.498;0.166;2022-11-15T10:27:42;5.63;;;4.20;;
49320;SDS011;35817;44.498;0.166;2022-11-15T10:30:15;7.25;;;4.15;;
49320;SDS011;35817;44.498;0.166;2022-11-15T10:32:43;5.43;;;4.28;;
49320;SDS011;35817;44.498;0.166;2022-11-15T10:35:19;7.25;;;4.72;;
49320;SDS011;35817;44.498;0.166;2022-11-15T10:37:48;13.88;;;4.97;;
49320;SDS011;35817;44.498;0.166;2022-11-15T10:42:46;6.57;;;4.70;;
49320;SDS011;35817;44.498;0.166;2022-11-15T10:45:22;11.25;;;4.38;;
49320;SDS011;35817;44.498;0.166;2022-11-15T10:48:18;7.03;;;4.85;;
49320;SDS011;35817;44.498;0.166;2022-11-15T10:50:49;6.53;;;5.05;;
49320;SDS011;35817;44.498;0.166;2022-11-15T10:55:56;7.70;;;4.50;;
49320;SDS011;35817;44.498;0.166;2022-11-15T10:58:44;8.40;;;5.65;;
49320;SDS011;35817;44.498;0.166;2022-11-15T11:01:18;10.13;;;5.18;;
49320;SDS011;35817;44.498;0.166;2022-11-15T11:03:57;8.00;;;5.07;;
49320;SDS011;35817;44.498;0.166;2022-11-15T11:06:57;8.40;;;5.43;;
49320;SDS011;35817;44.498;0.166;2022-11-15T11:09:37;7.82;;;4.93;;
49320;SDS011;35817;44.498;0.166;2022-11-15T11:12:27;8.63;;;4.53;;
49320;SDS011;35817;44.498;0.166;2022-11-15T11:15:12;9.05;;;4.82;;
49320;SDS011;35817;44.498;0.166;2022-11-15T11:20:26;9.02;;;5.20;;
49320;SDS011;35817;44.498;0.166;2022-11-15T11:23:17;5.97;;;4.85;;
49320;SDS011;35817;44.498;0.166;2022-11-15T11:39:14;9.43;;;6.93;;
49320;SDS011;35817;44.498;0.166;2022-11-15T11:42:04;11.60;;;5.70;;
49320;SDS011;35817;44.498;0.166;2022-11-15T11:52:54;9.77;;;5.13;;
49320;SDS011;35817;44.498;0.166;2022-11-15T11:55:22;8.30;;;6.53;;
49320;SDS011;35817;44.498;0.166;2022-11-15T12:00:52;8.50;;;6.18;;
49320;SDS011;35817;44.498;0.166;2022-11-15T12:05:54;14.90;;;9.15;;
49320;SDS011;35817;44.498;0.166;2022-11-15T12:11:26;11.00;;;7.18;;
49320;SDS011;35817;44.498;0.166;2022-11-15T12:13:56;9.38;;;5.38;;
49320;SDS011;35817;44.498;0.166;2022-11-15T12:16:28;11.98;;;5.57;;
49320;SDS011;35817;44.498;0.166;2022-11-15T12:18:58;9.52;;;5.07;;
49320;SDS011;35817;44.498;0.166;2022-11-15T12:26:59;7.82;;;5.60;;
49320;SDS011;35817;44.498;0.166;2022-11-15T12:29:39;12.15;;;6.65;;
49320;SDS011;35817;44.498;0.166;2022-11-15T12:32:21;9.55;;;5.88;;
49320;SDS011;35817;44.498;0.166;2022-11-15T12:34:51;7.70;;;6.05;;
49320;SDS011;35817;44.498;0.166;2022-11-15T12:42:56;7.50;;;5.32;;
49320;SDS011;35817;44.498;0.166;2022-11-15T12:45:41;10.00;;;6.40;;
49320;SDS011;35817;44.498;0.166;2022-11-15T12:48:45;7.55;;;5.63;;
49320;SDS011;35817;44.498;0.166;2022-11-15T12:51:11;8.57;;;5.53;;
49320;SDS011;35817;44.498;0.166;2022-11-15T12:53:36;11.25;;;4.97;;
49320;SDS011;35817;44.498;0.166;2022-11-15T13:04:21;9.27;;;4.68;;
49320;SDS011;35817;44.498;0.166;2022-11-15T13:12:00;6.28;;;5.13;;
49320;SDS011;35817;44.498;0.166;2022-11-15T13:15:01;7.18;;;3.63;;
49320;SDS011;35817;44.498;0.166;2022-11-15T13:18:24;6.20;;;4.20;;
49320;SDS011;35817;44.498;0.166;2022-11-15T13:20:48;6.32;;;3.80;;
49320;SDS011;35817;44.498;0.166;2022-11-15T13:23:15;5.40;;;3.20;;
49320;SDS011;35817;44.498;0.166;2022-11-15T13:30:39;8.15;;;5.40;;
49320;SDS011;35817;44.498;0.166;2022-11-15T13:33:15;4.45;;;2.97;;
49320;SDS011;35817;44.498;0.166;2022-11-15T13:35:41;3.58;;;3.00;;
49320;SDS011;35817;44.498;0.166;2022-11-15T13:38:17;3.58;;;2.45;;
49320;SDS011;35817;44.498;0.166;2022-11-15T13:40:55;3.72;;;2.28;;
49320;SDS011;35817;44.498;0.166;2022-11-15T13:48:37;2.53;;;1.05;;
49320;SDS011;35817;44.498;0.166;2022-11-15T13:51:06;4.38;;;1.67;;
49320;SDS011;35817;44.498;0.166;2022-11-15T13:53:43;2.30;;;1.23;;
49320;SDS011;35817;44.498;0.166;2022-11-15T13:56:15;5.40;;;1.83;;
49320;SDS011;35817;44.498;0.166;2022-11-15T14:01:13;3.45;;;1.05;;
49320;SDS011;35817;44.498;0.166;2022-11-15T14:03:49;3.08;;;1.65;;
49320;SDS011;35817;44.498;0.166;2022-11-15T14:06:19;3.65;;;0.90;;
49320;SDS011;35817;44.498;0.166;2022-11-15T14:11:24;3.90;;;1.38;;
49320;SDS011;35817;44.498;0.166;2022-11-15T14:16:37;7.15;;;1.30;;
49320;SDS011;35817;44.498;0.166;2022-11-15T14:19:04;3.28;;;1.10;;
49320;SDS011;35817;44.498;0.166;2022-11-15T14:21:31;3.33;;;0.77;;
49320;SDS011;35817;44.498;0.166;2022-11-15T14:24:15;4.03;;;1.20;;
49320;SDS011;35817;44.498;0.166;2022-11-15T14:26:42;3.92;;;0.95;;
49320;SDS011;35817;44.498;0.166;2022-11-15T14:29:21;2.15;;;0.77;;
49320;SDS011;35817;44.498;0.166;2022-11-15T14:31:51;1.45;;;0.68;;
49320;SDS011;35817;44.498;0.166;2022-11-15T14:34:35;2.20;;;1.00;;
49320;SDS011;35817;44.498;0.166;2022-11-15T14:37:01;2.38;;;0.98;;
49320;SDS011;35817;44.498;0.166;2022-11-15T14:39:27;2.22;;;1.17;;
49320;SDS011;35817;44.498;0.166;2022-11-15T14:41:52;3.15;;;1.45;;
49320;SDS011;35817;44.498;0.166;2022-11-15T14:44:18;2.17;;;1.55;;
49320;SDS011;35817;44.498;0.166;2022-11-15T14:46:46;5.18;;;0.85;;
49320;SDS011;35817;44.498;0.166;2022-11-15T14:49:13;2.50;;;0.95;;
49320;SDS011;35817;44.498;0.166;2022-11-15T14:51:40;1.52;;;0.77;;
49320;SDS011;35817;44.498;0.166;2022-11-15T14:54:09;2.45;;;0.93;;
49320;SDS011;35817;44.498;0.166;2022-11-15T14:56:35;3.83;;;0.88;;
49320;SDS011;35817;44.498;0.166;2022-11-15T14:59:01;5.05;;;0.52;;
49320;SDS011;35817;44.498;0.166;2022-11-15T15:01:26;1.48;;;0.80;;
49320;SDS011;35817;44.498;0.166;2022-11-15T15:03:52;1.75;;;0.63;;
49320;SDS011;35817;44.498;0.166;2022-11-15T15:06:21;2.35;;;0.50;;
49320;SDS011;35817;44.498;0.166;2022-11-15T15:08:47;1.13;;;0.70;;
49320;SDS011;35817;44.498;0.166;2022-11-15T15:11:22;2.63;;;0.75;;
49320;SDS011;35817;44.498;0.166;2022-11-15T15:13:51;2.22;;;0.98;;
49320;SDS011;35817;44.498;0.166;2022-11-15T15:16:18;2.17;;;0.60;;
49320;SDS011;35817;44.498;0.166;2022-11-15T15:18:43;1.58;;;0.65;;
49320;SDS011;35817;44.498;0.166;2022-11-15T15:21:17;3.53;;;0.88;;
49320;SDS011;35817;44.498;0.166;2022-11-15T15:23:47;3.03;;;1.23;;
49320;SDS011;35817;44.498;0.166;2022-11-15T15:26:13;4.47;;;2.10;;
49320;SDS011;35817;44.498;0.166;2022-11-15T15:28:39;1.65;;;0.90;;
49320;SDS011;35817;44.498;0.166;2022-11-15T15:31:05;2.83;;;1.40;;
49320;SDS011;35817;44.498;0.166;2022-11-15T15:33:31;3.97;;;1.35;;
49320;SDS011;35817;44.498;0.166;2022-11-15T15:35:57;6.53;;;1.85;;
49320;SDS011;35817;44.498;0.166;2022-11-15T15:38:24;2.30;;;0.85;;
49320;SDS011;35817;44.498;0.166;2022-11-15T15:40:49;1.48;;;0.65;;
49320;SDS011;35817;44.498;0.166;2022-11-15T15:43:15;2.38;;;0.98;;
49320;SDS011;35817;44.498;0.166;2022-11-15T15:45:41;3.58;;;0.70;;
49320;SDS011;35817;44.498;0.166;2022-11-15T15:48:10;2.30;;;0.85;;
49320;SDS011;35817;44.498;0.166;2022-11-15T15:50:37;3.10;;;1.15;;
49320;SDS011;35817;44.498;0.166;2022-11-15T15:53:04;1.63;;;0.90;;
49320;SDS011;35817;44.498;0.166;2022-11-15T15:55:30;2.15;;;0.80;;
49320;SDS011;35817;44.498;0.166;2022-11-15T15:57:57;4.05;;;0.60;;
49320;SDS011;35817;44.498;0.166;2022-11-15T16:00:23;2.70;;;0.68;;
49320;SDS011;35817;44.498;0.166;2022-11-15T16:02:50;1.33;;;0.40;;
49320;SDS011;35817;44.498;0.166;2022-11-15T16:05:16;2.35;;;0.90;;
49320;SDS011;35817;44.498;0.166;2022-11-15T16:07:42;1.75;;;0.50;;
49320;SDS011;35817;44.498;0.166;2022-11-15T16:10:22;4.82;;;1.35;;
49320;SDS011;35817;44.498;0.166;2022-11-15T16:12:51;2.38;;;0.60;;
49320;SDS011;35817;44.498;0.166;2022-11-15T16:15:18;1.40;;;0.60;;
49320;SDS011;35817;44.498;0.166;2022-11-15T16:17:47;1.88;;;0.60;;
49320;SDS011;35817;44.498;0.166;2022-11-15T16:22:59;4.00;;;0.80;;
49320;SDS011;35817;44.498;0.166;2022-11-15T16:25:25;3.13;;;0.82;;
49320;SDS011;35817;44.498;0.166;2022-11-15T16:27:51;5.18;;;1.50;;
49320;SDS011;35817;44.498;0.166;2022-11-15T16:30:18;2.10;;;0.63;;
49320;SDS011;35817;44.498;0.166;2022-11-15T16:32:45;3.10;;;0.85;;
49320;SDS011;35817;44.498;0.166;2022-11-15T16:35:11;3.58;;;1.02;;
49320;SDS011;35817;44.498;0.166;2022-11-15T16:37:38;1.70;;;0.73;;
49320;SDS011;35817;44.498;0.166;2022-11-15T16:40:17;1.25;;;0.43;;
49320;SDS011;35817;44.498;0.166;2022-11-15T16:42:50;0.93;;;0.20;;
49320;SDS011;35817;44.498;0.166;2022-11-15T16:45:16;3.63;;;0.80;;
49320;SDS011;35817;44.498;0.166;2022-11-15T16:47:41;1.02;;;0.60;;
49320;SDS011;35817;44.498;0.166;2022-11-15T16:50:24;1.70;;;0.40;;
49320;SDS011;35817;44.498;0.166;2022-11-15T16:52:52;0.63;;;0.30;;
49320;SDS011;35817;44.498;0.166;2022-11-15T16:55:19;1.00;;;0.40;;
49320;SDS011;35817;44.498;0.166;2022-11-15T16:57:46;0.30;;;0.30;;
49320;SDS011;35817;44.498;0.166;2022-11-15T17:00:12;1.08;;;0.22;;
49320;SDS011;35817;44.498;0.166;2022-11-15T17:02:43;1.43;;;0.40;;
49320;SDS011;35817;44.498;0.166;2022-11-15T17:05:10;1.13;;;0.30;;
49320;SDS011;35817;44.498;0.166;2022-11-15T17:07:36;1.50;;;0.22;;
49320;SDS011;35817;44.498;0.166;2022-11-15T17:10:02;0.75;;;0.30;;